Time;durP1;ratioP1;P1;durP2;ratioP2;P2;SDS_P1;SDS_P2;PMS_P1;PMS_P2;Temp;Humidity;BMP_temperature;BMP_pressure;BME280_temperature;BME280_humidity;BME280_pressure;Samples;Min_cycle;Max_cycle;Signal;HPM_P1;HPM_P2
2024/03/27 00:01:47;;;;;;;5.60;2.92;;;;;;;3.16;100.00;90601.03;5038924;28;20037;-82
2024/03/27 00:04:13;;;;;;;4.70;2.83;;;;;;;3.19;100.00;90601.19;5045366;28;20544;-82
2024/03/27 00:06:38;;;;;;;80.30;5.15;;;;;;;3.21;100.00;90604.25;5044693;28;20033;-83
2024/03/27 00:09:04;;;;;;;332.92;10.27;;;;;;;3.20;100.00;90602.75;5043163;28;20083;-81
2024/03/27 00:11:30;;;;;;;46.47;3.15;;;;;;;3.47;100.00;90604.56;5043550;28;20465;-81
2024/03/27 00:13:55;;;;;;;353.50;9.15;;;;;;;3.20;100.00;90607.13;5044353;28;20037;-81
2024/03/27 00:16:21;;;;;;;8.80;2.90;;;;;;;3.10;100.00;90614.00;5028907;28;20067;-80
2024/03/27 00:18:47;;;;;;;16.48;2.90;;;;;;;3.24;100.00;90613.25;5035051;28;20117;-80
2024/03/27 00:21:13;;;;;;;3.60;2.10;;;;;;;2.97;100.00;90607.00;5037980;28;20032;-81
2024/03/27 00:23:39;;;;;;;7.07;2.97;;;;;;;2.95;100.00;90601.38;5038651;28;20040;-81
2024/03/27 00:26:04;;;;;;;4.25;2.67;;;;;;;2.87;100.00;90597.63;5049715;28;20398;-82
2024/03/27 00:28:30;;;;;;;3.60;2.10;;;;;;;2.81;100.00;90592.81;5038522;28;20029;-80
2024/03/27 00:30:56;;;;;;;4.00;2.40;;;;;;;2.79;100.00;90587.97;5042986;28;20025;-81
2024/03/27 00:33:23;;;;;;;4.32;2.38;;;;;;;2.80;100.00;90578.38;5051526;28;20139;-81
2024/03/27 00:35:56;;;;;;;6.10;2.30;;;;;;;2.83;100.00;90582.97;5047764;28;20110;-81
2024/03/27 00:38:23;;;;;;;3.75;2.30;;;;;;;2.85;100.00;90578.28;5049486;28;20521;-82
2024/03/27 00:40:49;;;;;;;3.78;2.00;;;;;;;2.85;100.00;90580.88;5041699;28;20108;-81
2024/03/27 00:43:15;;;;;;;3.70;2.05;;;;;;;2.92;100.00;90576.84;5038389;28;20033;-82
2024/03/27 00:45:41;;;;;;;5.13;2.00;;;;;;;3.05;100.00;90577.91;5042890;28;20041;-81
2024/03/27 00:48:07;;;;;;;15.88;2.90;;;;;;;3.04;100.00;90573.81;5047746;28;20034;-80
2024/03/27 00:50:33;;;;;;;3.63;2.10;;;;;;;3.00;100.00;90566.91;5046959;28;20452;-80
2024/03/27 00:52:59;;;;;;;3.58;2.20;;;;;;;3.15;100.00;90563.28;5040640;28;20041;-82
2024/03/27 00:55:25;;;;;;;3.58;2.17;;;;;;;3.19;100.00;90564.22;5050898;28;20037;-81
2024/03/27 00:57:50;;;;;;;5.45;2.50;;;;;;;3.02;100.00;90560.41;5038251;28;20110;-79
2024/03/27 01:00:16;;;;;;;13.75;2.25;;;;;;;3.05;100.00;90559.81;5047539;28;20049;-80
2024/03/27 01:02:47;;;;;;;7.18;1.88;;;;;;;3.00;100.00;90551.41;5028947;28;20438;-81
2024/03/27 01:05:13;;;;;;;23.20;2.45;;;;;;;2.95;100.00;90548.91;5040461;28;20065;-80
2024/03/27 01:07:38;;;;;;;45.35;3.08;;;;;;;2.93;100.00;90549.22;5038295;28;20063;-82
2024/03/27 01:10:05;;;;;;;11.65;2.20;;;;;;;2.93;100.00;90551.78;5035223;28;20041;-80
2024/03/27 01:12:32;;;;;;;7.13;1.90;;;;;;;2.94;100.00;90545.56;5040526;28;20537;-81
2024/03/27 01:14:58;;;;;;;5.47;2.00;;;;;;;2.95;100.00;90539.34;5045072;28;20037;-81
2024/03/27 01:17:23;;;;;;;5.22;1.90;;;;;;;2.99;100.00;90540.28;5027496;28;20426;-80
2024/03/27 01:19:49;;;;;;;37.92;2.45;;;;;;;2.96;100.00;90535.69;5046888;28;20040;-81
2024/03/27 01:22:15;;;;;;;7.97;1.60;;;;;;;3.09;100.00;90529.78;5022976;28;20033;-81
2024/03/27 01:24:40;;;;;;;10.60;1.92;;;;;;;3.19;100.00;90541.72;5045562;28;20045;-79
2024/03/27 01:27:06;;;;;;;4.88;2.00;;;;;;;3.06;100.00;90543.28;5042315;28;20037;-81
2024/03/27 01:29:32;;;;;;;23.15;2.45;;;;;;;3.08;100.00;90538.56;5036751;28;20039;-81
2024/03/27 01:31:57;;;;;;;497.35;13.43;;;;;;;3.05;100.00;90538.38;5043001;28;20030;-83
2024/03/27 01:34:23;;;;;;;778.40;17.85;;;;;;;2.90;100.00;90542.00;5026359;28;20442;-81
2024/03/27 01:36:49;;;;;;;740.10;17.08;;;;;;;2.76;100.00;90542.00;5042415;28;20114;-81
2024/03/27 01:39:14;;;;;;;347.98;8.80;;;;;;;2.71;100.00;90540.28;5049921;28;20040;-79
2024/03/27 01:41:40;;;;;;;119.30;5.05;;;;;;;2.72;100.00;90528.09;5041582;28;20509;-81
2024/03/27 01:44:19;;;;;;;50.40;4.10;;;;;;;2.74;100.00;90520.84;5039294;28;20025;-78
2024/03/27 01:46:49;;;;;;;6.93;2.95;;;;;;;2.77;100.00;90519.50;5042884;28;20056;-81
2024/03/27 01:49:15;;;;;;;171.65;6.45;;;;;;;2.74;100.00;90520.09;5028113;28;20036;-81
2024/03/27 01:51:42;;;;;;;41.58;4.88;;;;;;;2.75;100.00;90512.06;5020676;28;20174;-83
2024/03/27 01:54:11;;;;;;;297.40;7.03;;;;;;;2.75;100.00;90516.44;5042470;28;20482;-82
2024/03/27 01:56:37;;;;;;;353.33;9.75;;;;;;;2.71;100.00;90508.50;5039791;28;20033;-82
2024/03/27 01:59:04;;;;;;;250.55;9.80;;;;;;;2.71;100.00;90509.25;5032575;28;20037;-82
2024/03/27 02:01:32;;;;;;;128.13;6.38;;;;;;;2.74;100.00;90496.84;5039389;28;20028;-77
2024/03/27 02:03:59;;;;;;;32.58;6.53;;;;;;;2.76;100.00;90486.97;5026134;28;20033;-83
2024/03/27 02:06:25;;;;;;;74.22;11.98;;;;;;;2.79;100.00;90488.97;5042568;28;20411;-82
2024/03/27 02:08:51;;;;;;;82.03;4.05;;;;;;;2.82;100.00;90481.44;5041551;28;20244;-82
2024/03/27 02:11:17;;;;;;;33.05;2.53;;;;;;;2.99;100.00;90483.41;5042121;28;20041;-81
2024/03/27 02:13:44;;;;;;;143.63;4.60;;;;;;;3.02;100.00;90476.94;5046292;28;20033;-80
2024/03/27 02:16:10;;;;;;;289.02;13.13;;;;;;;2.90;100.00;90470.44;5041426;28;20091;-80
2024/03/27 02:18:36;;;;;;;485.63;11.35;;;;;;;2.91;100.00;90466.03;5042464;28;20120;-81
2024/03/27 02:21:03;;;;;;;406.60;9.55;;;;;;;2.85;100.00;90456.81;5027984;28;20110;-80
2024/03/27 02:23:50;;;;;;;199.90;5.53;;;;;;;2.73;100.00;90453.97;5042416;28;20026;-82
2024/03/27 02:26:17;;;;;;;328.30;7.10;;;;;;;2.69;100.00;90448.59;4992544;28;20501;-80
2024/03/27 02:28:43;;;;;;;139.68;3.90;;;;;;;2.87;100.00;90437.38;5022925;28;20044;-81
2024/03/27 02:31:09;;;;;;;319.85;7.53;;;;;;;2.75;100.00;90426.78;5036228;28;20045;-82
2024/03/27 02:33:35;;;;;;;454.40;11.13;;;;;;;2.83;100.00;90422.75;5023158;28;20039;-81
2024/03/27 02:36:01;;;;;;;283.77;8.05;;;;;;;2.71;100.00;90418.09;5018683;28;20043;-81
2024/03/27 02:38:27;;;;;;;219.13;5.78;;;;;;;2.71;100.00;90410.31;5039369;28;20040;-80
2024/03/27 02:40:53;;;;;;;296.83;6.95;;;;;;;2.61;100.00;90411.31;5043422;28;20444;-81
2024/03/27 02:43:19;;;;;;;70.47;3.15;;;;;;;2.56;100.00;90398.47;5040853;28;20022;-80
2024/03/27 02:45:45;;;;;;;25.38;1.77;;;;;;;2.75;100.00;90392.41;5040528;28;20041;-82
2024/03/27 02:48:10;;;;;;;269.25;5.95;;;;;;;2.71;100.00;90387.06;5033477;28;20029;-80
2024/03/27 02:50:36;;;;;;;113.32;3.95;;;;;;;2.65;100.00;90388.22;5034528;28;20036;-80
2024/03/27 02:53:02;;;;;;;39.17;2.63;;;;;;;2.65;100.00;90386.41;5039140;28;20033;-82
2024/03/27 02:55:28;;;;;;;129.73;3.95;;;;;;;2.65;100.00;90381.22;5048175;28;20484;-82
2024/03/27 02:57:53;;;;;;;97.05;3.38;;;;;;;2.66;100.00;90379.44;5043793;28;20033;-79
2024/03/27 03:00:19;;;;;;;68.35;2.63;;;;;;;2.65;100.00;90381.22;5036721;28;20400;-79
2024/03/27 03:02:44;;;;;;;18.95;2.10;;;;;;;2.67;100.00;90366.22;5044986;28;20041;-80
2024/03/27 03:05:10;;;;;;;3.83;2.08;;;;;;;2.70;100.00;90362.28;5040405;28;20486;-80
2024/03/27 03:07:36;;;;;;;2.80;1.75;;;;;;;2.71;100.00;90359.41;5045978;28;20099;-79
2024/03/27 03:10:03;;;;;;;2.72;1.60;;;;;;;2.74;100.00;90358.06;5041387;28;20041;-81
2024/03/27 03:12:29;;;;;;;2.60;1.50;;;;;;;2.74;100.00;90347.72;5049325;28;20060;-82
2024/03/27 03:14:54;;;;;;;2.08;1.30;;;;;;;2.79;100.00;90342.47;5040814;28;20088;-80
2024/03/27 03:17:20;;;;;;;2.47;1.40;;;;;;;2.81;100.00;90337.75;5040473;28;20859;-81
2024/03/27 03:19:46;;;;;;;2.20;1.38;;;;;;;2.81;100.00;90318.91;5022352;28;20059;-81
2024/03/27 03:22:12;;;;;;;2.65;1.20;;;;;;;2.86;100.00;90323.97;5042689;28;20033;-79
2024/03/27 03:24:38;;;;;;;125.10;4.15;;;;;;;2.89;100.00;90318.22;5042674;28;20043;-82
2024/03/27 03:27:04;;;;;;;152.23;4.60;;;;;;;2.77;100.00;90318.75;5043479;28;20029;-83
2024/03/27 03:29:29;;;;;;;41.28;2.50;;;;;;;2.86;100.00;90329.13;5044858;28;20063;-80
2024/03/27 03:31:57;;;;;;;5.47;1.73;;;;;;;2.80;100.00;90314.81;5043075;28;20091;-80
2024/03/27 03:34:24;;;;;;;1.30;1.05;;;;;;;2.88;100.00;90306.34;5038233;28;20043;-79
2024/03/27 03:36:50;;;;;;;4.32;1.02;;;;;;;2.91;100.00;90308.38;5045171;28;20036;-80
2024/03/27 03:39:16;;;;;;;0.88;0.68;;;;;;;2.95;100.00;90301.56;5040027;28;20029;-79
2024/03/27 03:41:42;;;;;;;0.70;0.70;;;;;;;2.97;100.00;90278.00;5047015;28;20048;-80
2024/03/27 03:44:08;;;;;;;3.95;0.70;;;;;;;3.08;100.00;90280.03;5038354;28;20102;-81
2024/03/27 03:46:34;;;;;;;233.85;6.65;;;;;;;3.24;100.00;90282.28;5026199;28;20120;-80
2024/03/27 03:48:59;;;;;;;240.05;6.05;;;;;;;3.10;100.00;90274.59;5044709;28;20024;-78
2024/03/27 03:51:25;;;;;;;41.53;2.30;;;;;;;3.00;100.00;90285.19;5040016;28;20037;-81
2024/03/27 03:53:52;;;;;;;2.55;1.30;;;;;;;2.93;100.00;90295.91;5044987;28;20099;-81
2024/03/27 03:56:18;;;;;;;17.75;1.52;;;;;;;2.99;100.00;90292.16;5045600;28;20035;-81
2024/03/27 03:58:44;;;;;;;177.40;4.65;;;;;;;2.93;100.00;90277.84;5044732;28;20037;-81
2024/03/27 04:01:10;;;;;;;90.22;2.85;;;;;;;2.83;100.00;90275.47;5039238;28;21785;-79
2024/03/27 04:03:36;;;;;;;376.98;8.85;;;;;;;2.87;100.00;90277.16;5045317;28;20123;-80
2024/03/27 04:06:02;;;;;;;225.27;5.43;;;;;;;2.84;100.00;90280.34;5025069;28;20029;-80
2024/03/27 04:08:27;;;;;;;129.25;3.88;;;;;;;2.80;100.00;90273.47;5043003;28;20091;-79
2024/03/27 04:10:53;;;;;;;34.05;1.85;;;;;;;2.71;100.00;90260.47;5041616;28;20029;-80
2024/03/27 04:13:18;;;;;;;6.32;0.95;;;;;;;2.63;100.00;90259.34;5043243;28;20092;-79
2024/03/27 04:15:45;;;;;;;1.45;0.85;;;;;;;2.61;100.00;90253.72;5022083;28;20498;-79
2024/03/27 04:18:10;;;;;;;0.80;0.65;;;;;;;2.55;100.00;90241.97;5037576;28;20044;-79
2024/03/27 04:20:40;;;;;;;0.90;0.85;;;;;;;2.55;100.00;90246.38;5041025;28;20040;-81
2024/03/27 04:23:06;;;;;;;1.40;0.80;;;;;;;2.56;100.00;90258.22;5037427;28;20525;-81
2024/03/27 04:25:32;;;;;;;1.30;0.98;;;;;;;2.52;100.00;90259.84;5043790;28;20041;-83
2024/03/27 04:27:57;;;;;;;83.03;2.53;;;;;;;2.56;100.00;90266.72;5046955;28;20063;-81
2024/03/27 04:30:23;;;;;;;87.43;2.60;;;;;;;2.58;100.00;90249.13;5047643;28;20385;-80
2024/03/27 04:32:49;;;;;;;21.88;2.60;;;;;;;2.57;100.00;90239.88;5048170;28;20025;-82
2024/03/27 04:35:15;;;;;;;2.75;1.40;;;;;;;2.61;100.00;90243.41;5028048;28;20045;-80
2024/03/27 04:37:41;;;;;;;1.80;1.20;;;;;;;2.63;100.00;90243.84;5041538;28;20044;-80
2024/03/27 04:40:11;;;;;;;2.30;1.00;;;;;;;2.66;100.00;90225.19;5053151;28;20029;-81
2024/03/27 04:42:40;;;;;;;1.58;0.90;;;;;;;2.68;100.00;90193.91;5039055;28;20418;-80
2024/03/27 04:45:11;;;;;;;5.85;2.55;;;;;;;3.12;100.00;90202.69;5045249;28;20407;-80
2024/03/27 04:47:37;;;;;;;0.75;0.73;;;;;;;3.18;100.00;90222.19;5050100;28;20064;-81
2024/03/27 04:50:04;;;;;;;1.02;0.85;;;;;;;3.04;100.00;90234.41;5044020;28;20063;-80
2024/03/27 04:52:30;;;;;;;1.48;1.10;;;;;;;2.83;100.00;90216.78;5041367;28;20112;-79
2024/03/27 04:54:55;;;;;;;5.72;1.27;;;;;;;2.75;100.00;90203.81;5053646;28;20060;-80
2024/03/27 04:57:21;;;;;;;46.50;2.08;;;;;;;2.57;100.00;90188.19;5043658;28;20479;-82
2024/03/27 04:59:51;;;;;;;85.45;2.90;;;;;;;2.57;100.00;90185.63;5044439;28;20037;-80
2024/03/27 05:02:17;;;;;;;43.33;1.88;;;;;;;2.66;100.00;90186.44;5037710;28;20104;-80
2024/03/27 05:04:42;;;;;;;0.95;0.82;;;;;;;2.57;100.00;90183.03;5043179;28;20121;-81
2024/03/27 05:07:08;;;;;;;129.93;3.22;;;;;;;2.56;100.00;90171.16;5043732;28;20036;-81
2024/03/27 05:09:36;;;;;;;56.83;2.13;;;;;;;2.46;100.00;90182.50;5043299;28;20083;-82
2024/03/27 05:12:02;;;;;;;103.65;2.85;;;;;;;2.50;100.00;90198.94;5043585;28;20533;-82
2024/03/27 05:14:29;;;;;;;83.18;2.65;;;;;;;2.40;100.00;90224.22;5027590;28;20045;-80
2024/03/27 05:16:55;;;;;;;116.30;3.25;;;;;;;2.45;100.00;90234.44;5043749;28;20033;-81
2024/03/27 05:19:20;;;;;;;100.97;3.35;;;;;;;2.39;100.00;90240.78;5046961;28;20029;-80
2024/03/27 05:21:48;;;;;;;1.25;0.60;;;;;;;2.32;100.00;90225.69;5035654;28;20158;-80
2024/03/27 05:24:13;;;;;;;1.98;0.68;;;;;;;2.20;100.00;90200.34;5039747;28;20173;-80
2024/03/27 05:26:50;;;;;;;0.60;0.60;;;;;;;2.15;100.00;90186.81;5022290;28;20473;-80
2024/03/27 05:29:16;;;;;;;0.77;0.65;;;;;;;2.07;100.00;90190.81;5034327;28;20033;-80
2024/03/27 05:31:52;;;;;;;0.82;0.80;;;;;;;2.06;100.00;90194.47;5042601;28;20034;-79
2024/03/27 05:34:19;;;;;;;0.93;0.85;;;;;;;2.00;100.00;90198.94;5044641;28;20037;-79
2024/03/27 05:36:45;;;;;;;1.00;0.90;;;;;;;2.05;100.00;90211.00;5045120;28;20037;-81
2024/03/27 05:39:11;;;;;;;0.55;0.55;;;;;;;2.22;100.00;90205.22;5044111;28;20097;-81
2024/03/27 05:41:38;;;;;;;0.70;0.70;;;;;;;2.14;100.00;90201.53;5040313;28;20045;-82
2024/03/27 05:44:04;;;;;;;0.70;0.68;;;;;;;2.08;100.00;90193.13;5050178;28;20036;-81
2024/03/27 05:46:31;;;;;;;1.00;0.88;;;;;;;2.07;100.00;90183.84;5050965;28;20029;-82
2024/03/27 05:48:57;;;;;;;1.83;1.10;;;;;;;2.10;100.00;90181.75;5052770;28;20040;-81
2024/03/27 05:51:28;;;;;;;2.03;1.40;;;;;;;2.14;100.00;90180.88;5031914;28;20029;-81
2024/03/27 05:53:54;;;;;;;0.60;0.60;;;;;;;2.17;100.00;90179.53;5048372;28;20036;-82
2024/03/27 05:56:19;;;;;;;0.82;0.70;;;;;;;2.15;100.00;90174.66;5051881;28;20037;-82
2024/03/27 05:58:48;;;;;;;0.73;0.73;;;;;;;2.18;100.00;90171.47;5050443;28;20512;-81
2024/03/27 06:01:14;;;;;;;0.60;0.60;;;;;;;2.13;100.00;90174.19;5052726;28;20112;-81
2024/03/27 06:03:42;;;;;;;0.68;0.68;;;;;;;2.16;100.00;90178.00;5046553;28;20111;-81
2024/03/27 06:06:08;;;;;;;0.47;0.47;;;;;;;1.99;100.00;90169.06;5045071;28;20087;-81
2024/03/27 06:08:33;;;;;;;0.60;0.60;;;;;;;2.10;100.00;90179.16;5031086;28;20034;-81
2024/03/27 06:11:00;;;;;;;0.70;0.70;;;;;;;1.99;100.00;90178.63;5039304;28;20041;-82
2024/03/27 06:13:26;;;;;;;0.50;0.50;;;;;;;1.88;100.00;90172.91;5054931;28;20113;-81
2024/03/27 06:15:52;;;;;;;0.60;0.60;;;;;;;1.92;100.00;90188.56;5047995;28;20462;-80
2024/03/27 06:18:17;;;;;;;0.60;0.60;;;;;;;1.80;100.00;90181.31;5034344;28;20048;-81
2024/03/27 06:20:45;;;;;;;0.50;0.50;;;;;;;1.84;100.00;90175.28;5033728;28;20242;-81
2024/03/27 06:23:11;;;;;;;0.50;0.50;;;;;;;1.79;100.00;90183.13;5048294;28;20105;-81
2024/03/27 06:25:37;;;;;;;0.60;0.60;;;;;;;1.64;100.00;90189.38;5043113;28;20061;-83
2024/03/27 06:28:02;;;;;;;0.70;0.70;;;;;;;1.65;100.00;90196.03;5040963;28;20059;-81
2024/03/27 06:30:30;;;;;;;0.57;0.57;;;;;;;1.59;100.00;90196.41;5030571;28;20491;-81
2024/03/27 06:32:56;;;;;;;0.60;0.60;;;;;;;1.49;100.00;90204.34;5043130;28;20098;-80
2024/03/27 06:35:22;;;;;;;0.63;0.50;;;;;;;1.53;100.00;90189.81;5043639;28;20041;-81
2024/03/27 06:37:48;;;;;;;0.50;0.50;;;;;;;1.45;100.00;90202.34;5019682;28;20033;-81
2024/03/27 06:40:14;;;;;;;2.90;1.67;;;;;;;1.47;100.00;90198.72;5045412;28;20037;-81
2024/03/27 06:42:41;;;;;;;0.57;0.57;;;;;;;1.36;100.00;90196.31;5027210;28;20041;-80
2024/03/27 06:45:07;;;;;;;0.60;0.60;;;;;;;1.33;100.00;90204.63;5041295;28;20033;-81
2024/03/27 06:47:33;;;;;;;0.65;0.65;;;;;;;1.32;100.00;90208.25;5044021;28;20045;-80
2024/03/27 06:49:59;;;;;;;13.60;2.28;;;;;;;1.51;100.00;90215.13;5028050;28;20245;-81
2024/03/27 06:52:25;;;;;;;1.45;1.05;;;;;;;1.39;100.00;90206.06;5044940;28;20127;-80
2024/03/27 06:54:54;;;;;;;1.45;1.00;;;;;;;1.33;100.00;90214.16;5037650;28;20054;-81
2024/03/27 06:57:19;;;;;;;1.20;0.90;;;;;;;1.28;100.00;90199.53;5048085;28;20107;-81
2024/03/27 06:59:45;;;;;;;0.80;0.80;;;;;;;1.31;100.00;90185.34;5042297;28;20116;-81
2024/03/27 07:02:10;;;;;;;1.10;1.00;;;;;;;1.30;100.00;90174.25;5037017;28;20044;-81
2024/03/27 07:04:37;;;;;;;2.30;1.40;;;;;;;1.28;100.00;90168.63;5020319;28;20038;-81
2024/03/27 07:07:02;;;;;;;2.70;1.40;;;;;;;1.30;100.00;90158.78;5037230;28;20380;-81
2024/03/27 07:09:30;;;;;;;1.00;0.80;;;;;;;1.35;100.00;90179.34;5045727;28;20106;-80
2024/03/27 07:11:55;;;;;;;0.75;0.70;;;;;;;1.28;100.00;90185.91;5043603;28;20426;-81
2024/03/27 07:14:21;;;;;;;0.80;0.80;;;;;;;1.32;100.00;90203.09;5026627;28;20042;-81
2024/03/27 07:16:46;;;;;;;0.70;0.70;;;;;;;1.26;100.00;90193.91;5024653;28;20314;-81
2024/03/27 07:19:12;;;;;;;0.98;0.90;;;;;;;1.25;100.00;90169.97;5027529;28;20491;-81
2024/03/27 07:21:38;;;;;;;0.70;0.70;;;;;;;1.29;100.00;90170.16;5029902;28;20390;-81
2024/03/27 07:24:04;;;;;;;1.40;0.90;;;;;;;1.34;100.00;90154.59;5038123;28;20045;-81
2024/03/27 07:26:31;;;;;;;0.82;0.75;;;;;;;1.38;100.00;90173.59;5029669;28;20022;-81
2024/03/27 07:28:57;;;;;;;0.52;0.52;;;;;;;1.41;100.00;90173.00;5033200;28;20029;-81
2024/03/27 07:31:23;;;;;;;0.63;0.63;;;;;;;1.41;100.00;90170.44;5030055;28;20546;-81
2024/03/27 07:33:48;;;;;;;0.50;0.50;;;;;;;1.42;100.00;90169.41;5029336;28;20036;-81
2024/03/27 07:36:14;;;;;;;0.50;0.50;;;;;;;1.48;100.00;90159.75;5038505;28;20050;-81
2024/03/27 07:38:40;;;;;;;0.70;0.60;;;;;;;1.55;100.00;90156.78;5038213;28;20033;-81
2024/03/27 07:41:06;;;;;;;0.63;0.63;;;;;;;1.65;100.00;90148.84;5029032;28;20378;-81
2024/03/27 07:43:31;;;;;;;0.73;0.73;;;;;;;1.77;100.00;90143.94;5028076;28;20033;-81
2024/03/27 07:45:57;;;;;;;0.60;0.60;;;;;;;1.88;100.00;90157.41;5037483;28;20044;-81
2024/03/27 07:48:24;;;;;;;0.90;0.82;;;;;;;1.95;100.00;90151.84;5033281;28;20037;-80
2024/03/27 07:50:49;;;;;;;0.77;0.77;;;;;;;1.99;100.00;90158.72;5024065;28;20048;-80
2024/03/27 07:53:15;;;;;;;0.68;0.68;;;;;;;2.05;100.00;90151.66;5025287;28;20458;-81
2024/03/27 07:55:40;;;;;;;0.73;0.63;;;;;;;2.07;100.00;90139.19;5029645;28;20053;-81
2024/03/27 07:58:06;;;;;;;1.00;0.77;;;;;;;2.17;100.00;90138.22;5027708;28;20049;-81
2024/03/27 08:00:31;;;;;;;0.82;0.77;;;;;;;2.21;100.00;90137.34;5031553;28;20477;-80
2024/03/27 08:02:57;;;;;;;0.73;0.73;;;;;;;2.29;100.00;90128.91;5032479;28;20116;-81
2024/03/27 08:05:23;;;;;;;0.60;0.60;;;;;;;2.36;100.00;90125.91;5034858;28;20041;-81
2024/03/27 08:07:48;;;;;;;0.80;0.80;;;;;;;2.44;100.00;90132.22;5033154;28;20033;-81
2024/03/27 08:10:14;;;;;;;0.88;0.70;;;;;;;2.55;100.00;90143.06;5035702;28;20542;-82
2024/03/27 08:12:40;;;;;;;1.00;0.90;;;;;;;2.58;100.00;90109.66;5029637;28;20057;-81
2024/03/27 08:15:09;;;;;;;1.08;0.80;;;;;;;2.68;100.00;90104.25;5033871;28;20056;-81
2024/03/27 08:17:35;;;;;;;0.70;0.70;;;;;;;2.81;100.00;90109.63;5035594;28;20029;-81
2024/03/27 08:20:01;;;;;;;0.70;0.70;;;;;;;2.90;100.00;90113.00;5034130;28;20042;-81
2024/03/27 08:22:28;;;;;;;1.05;0.93;;;;;;;2.99;100.00;90115.63;5015061;28;20042;-81
2024/03/27 08:24:54;;;;;;;0.82;0.82;;;;;;;3.05;100.00;90114.47;5027789;28;20029;-80
2024/03/27 08:27:19;;;;;;;0.80;0.77;;;;;;;3.12;100.00;90120.72;5034478;28;20483;-81
2024/03/27 08:29:45;;;;;;;0.70;0.70;;;;;;;3.10;100.00;90094.41;5029883;28;20065;-81
2024/03/27 08:32:10;;;;;;;1.17;0.95;;;;;;;3.17;100.00;90111.31;5035022;28;20402;-81
2024/03/27 08:34:36;;;;;;;1.08;0.90;;;;;;;3.22;100.00;90114.53;5022055;28;20048;-81
2024/03/27 08:37:02;;;;;;;0.70;0.70;;;;;;;3.25;100.00;90128.69;5029549;28;20065;-81
2024/03/27 08:39:28;;;;;;;0.90;0.90;;;;;;;3.31;100.00;90128.25;5033329;28;20056;-81
2024/03/27 08:41:54;;;;;;;2.03;1.00;;;;;;;3.31;100.00;90123.09;5028325;28;20065;-81
2024/03/27 08:44:20;;;;;;;1.20;1.00;;;;;;;3.32;100.00;90124.59;5035757;28;20041;-80
2024/03/27 08:46:45;;;;;;;0.75;0.75;;;;;;;3.32;100.00;90113.50;5036299;28;20029;-81
2024/03/27 08:49:13;;;;;;;1.45;0.88;;;;;;;3.41;100.00;90127.22;5017996;28;20046;-81
2024/03/27 08:51:40;;;;;;;1.00;0.90;;;;;;;3.48;100.00;90117.19;5038698;28;20556;-82
2024/03/27 08:54:05;;;;;;;0.65;0.63;;;;;;;3.50;100.00;90109.13;5035915;28;20509;-81
2024/03/27 08:56:31;;;;;;;1.23;0.93;;;;;;;3.58;100.00;90110.22;5035837;28;20049;-81
2024/03/27 08:58:57;;;;;;;1.05;0.68;;;;;;;3.63;100.00;90102.31;5033884;28;20033;-81
2024/03/27 09:01:23;;;;;;;0.77;0.70;;;;;;;3.69;100.00;90103.69;5028106;28;20087;-81
2024/03/27 09:03:48;;;;;;;1.13;0.70;;;;;;;3.79;100.00;90111.19;5034893;28;20041;-81
2024/03/27 09:06:14;;;;;;;0.70;0.70;;;;;;;3.82;100.00;90102.78;5032455;28;20108;-81
2024/03/27 09:08:40;;;;;;;0.80;0.70;;;;;;;3.86;100.00;90102.97;5023798;28;20045;-81
2024/03/27 09:11:09;;;;;;;0.80;0.80;;;;;;;3.89;100.00;90105.69;5034918;28;20357;-81
2024/03/27 09:13:35;;;;;;;1.65;1.05;;;;;;;3.93;100.00;90095.50;5030537;28;20073;-81
2024/03/27 09:16:03;;;;;;;1.30;0.88;;;;;;;4.00;100.00;90100.25;5021656;28;20041;-81
2024/03/27 09:18:29;;;;;;;0.85;0.63;;;;;;;4.05;100.00;90102.66;5032095;28;20120;-81
2024/03/27 09:20:57;;;;;;;0.80;0.60;;;;;;;4.11;100.00;90097.03;5034144;28;20045;-81
2024/03/27 09:23:25;;;;;;;0.70;0.70;;;;;;;4.17;100.00;90093.25;5035263;28;20056;-82
2024/03/27 09:25:54;;;;;;;1.05;0.60;;;;;;;4.24;100.00;90100.56;5035630;28;20075;-82
2024/03/27 09:28:21;;;;;;;0.60;0.60;;;;;;;4.29;100.00;90112.59;5034853;28;20112;-81
2024/03/27 09:30:46;;;;;;;0.98;0.90;;;;;;;4.31;100.00;90106.03;5031469;28;20041;-79
2024/03/27 09:33:12;;;;;;;3.88;1.10;;;;;;;4.37;100.00;90112.59;5016798;28;20042;-80
2024/03/27 09:35:38;;;;;;;0.70;0.70;;;;;;;4.44;100.00;90125.06;5035114;28;20037;-81
2024/03/27 09:38:04;;;;;;;1.15;1.00;;;;;;;4.76;100.00;90116.03;5033629;28;20033;-82
2024/03/27 09:40:30;;;;;;;0.95;0.82;;;;;;;4.92;100.00;90100.75;5021935;28;20037;-81
2024/03/27 09:42:55;;;;;;;0.60;0.60;;;;;;;5.09;100.00;90107.75;5036288;28;20046;-81
2024/03/27 09:45:23;;;;;;;1.25;0.68;;;;;;;4.99;100.00;90115.84;5037295;28;20033;-80
2024/03/27 09:47:50;;;;;;;1.48;0.82;;;;;;;4.97;100.00;90110.19;5021952;28;20061;-80
2024/03/27 09:50:16;;;;;;;6.38;2.33;;;;;;;5.02;100.00;90115.22;5037260;28;20041;-80
2024/03/27 09:52:42;;;;;;;1.63;1.10;;;;;;;4.93;100.00;90093.72;5037102;28;20072;-81
2024/03/27 09:55:11;;;;;;;0.60;0.60;;;;;;;4.87;100.00;90110.53;5033223;28;20044;-80
2024/03/27 09:57:37;;;;;;;0.80;0.80;;;;;;;4.86;100.00;90103.81;5035484;28;20033;-81
2024/03/27 10:00:06;;;;;;;4.88;1.92;;;;;;;5.10;100.00;90105.91;5030824;28;20049;-81
2024/03/27 10:02:31;;;;;;;2.90;1.50;;;;;;;4.89;100.00;90109.16;5036182;28;20418;-81
2024/03/27 10:04:58;;;;;;;0.70;0.70;;;;;;;4.79;100.00;90112.06;5021486;28;20049;-81
2024/03/27 10:07:24;;;;;;;1.45;1.00;;;;;;;4.67;100.00;90112.69;5027903;28;20529;-81
2024/03/27 10:09:50;;;;;;;1.52;1.17;;;;;;;4.63;100.00;90111.78;5026926;28;20411;-81
2024/03/27 10:12:16;;;;;;;1.30;1.05;;;;;;;4.61;100.00;90111.34;5019915;28;20049;-82
2024/03/27 10:14:41;;;;;;;1.35;1.00;;;;;;;4.63;100.00;90109.19;5037532;28;20049;-81
2024/03/27 10:17:07;;;;;;;0.90;0.90;;;;;;;4.72;100.00;90114.38;5028674;28;20034;-81
2024/03/27 10:19:33;;;;;;;4.38;1.85;;;;;;;4.83;100.00;90115.56;5038655;28;20038;-80
2024/03/27 10:21:59;;;;;;;0.80;0.80;;;;;;;4.85;100.00;90128.22;5037660;28;20033;-80
2024/03/27 10:24:25;;;;;;;1.20;0.90;;;;;;;4.78;100.00;90124.28;5028402;28;20042;-81
2024/03/27 10:26:51;;;;;;;0.93;0.88;;;;;;;4.83;100.00;90125.94;5035899;28;20046;-79
2024/03/27 10:29:17;;;;;;;1.13;0.90;;;;;;;4.97;100.00;90125.75;5032017;28;20018;-81
2024/03/27 10:31:43;;;;;;;1.02;0.90;;;;;;;4.94;100.00;90126.38;5031602;28;20529;-81
2024/03/27 10:34:08;;;;;;;1.27;1.02;;;;;;;4.84;100.00;90121.50;5038736;28;20116;-81
2024/03/27 10:36:35;;;;;;;0.80;0.80;;;;;;;4.79;100.00;90136.16;5031617;28;20027;-81
2024/03/27 10:39:07;;;;;;;1.02;0.85;;;;;;;4.73;100.00;90132.22;5039873;28;20038;-81
2024/03/27 10:41:34;;;;;;;0.75;0.75;;;;;;;4.82;100.00;90144.38;5030869;28;20044;-81
2024/03/27 10:44:02;;;;;;;0.90;0.90;;;;;;;4.75;100.00;90144.84;5039059;28;20060;-81
2024/03/27 10:46:32;;;;;;;0.95;0.90;;;;;;;4.85;100.00;90154.16;5040588;28;20064;-82
2024/03/27 10:49:00;;;;;;;3.33;1.80;;;;;;;4.92;100.00;90154.44;5040122;28;20056;-81
2024/03/27 10:51:26;;;;;;;1.08;0.98;;;;;;;4.73;100.00;90152.94;5030573;28;20017;-81
2024/03/27 10:53:54;;;;;;;0.73;0.73;;;;;;;4.63;100.00;90166.22;5038973;28;20060;-81
2024/03/27 10:56:20;;;;;;;0.80;0.80;;;;;;;4.50;100.00;90154.94;5039516;28;20098;-80
2024/03/27 10:58:47;;;;;;;0.85;0.85;;;;;;;4.54;100.00;90161.03;5033888;28;20030;-81
2024/03/27 11:01:13;;;;;;;1.00;0.70;;;;;;;4.63;100.00;90162.84;5038656;28;20041;-81
2024/03/27 11:03:41;;;;;;;0.60;0.60;;;;;;;4.43;100.00;90159.06;5036680;28;20100;-80
2024/03/27 11:06:08;;;;;;;0.80;0.80;;;;;;;4.40;100.00;90162.25;5035017;28;20053;-81
2024/03/27 11:08:36;;;;;;;3.30;1.60;;;;;;;4.55;100.00;90167.75;5026041;28;20030;-80
2024/03/27 11:11:09;;;;;;;2.05;1.02;;;;;;;4.46;100.00;90166.19;5036253;28;20103;-81
2024/03/27 11:13:36;;;;;;;0.65;0.65;;;;;;;4.58;100.00;90166.38;5036455;28;20511;-81
2024/03/27 11:16:02;;;;;;;1.35;0.95;;;;;;;4.51;100.00;90161.66;5036739;28;20037;-80
2024/03/27 11:18:29;;;;;;;0.98;0.82;;;;;;;4.58;100.00;90171.56;5036639;28;20141;-81
2024/03/27 11:20:56;;;;;;;1.17;0.90;;;;;;;4.56;100.00;90177.03;5038440;28;20037;-81
2024/03/27 11:23:28;;;;;;;0.68;0.68;;;;;;;4.45;100.00;90180.22;5038772;28;20088;-81
2024/03/27 11:25:55;;;;;;;0.70;0.70;;;;;;;4.36;100.00;90173.22;5031559;28;20046;-80